Time;durP1;ratioP1;P1;durP2;ratioP2;P2;SDS_P1;SDS_P2;PMS_P1;PMS_P2;Temp;Humidity;BMP_temperature;BMP_pressure;BME280_temperature;BME280_humidity;BME280_pressure;Samples;Min_cycle;Max_cycle;Signal;HPM_P1;HPM_P2
2023/12/21 00:00:51;;;;;;;14.33;4.23;;;;;;;;;;5037832;28;20473;-82
2023/12/21 00:03:18;;;;;;;13.60;4.80;;;;;;;;;;5037797;28;20445;-80
2023/12/21 00:05:46;;;;;;;19.83;4.63;;;;;;;;;;5037778;28;20472;-81
2023/12/21 00:08:13;;;;;;;15.23;4.40;;;;;;;;;;5037057;28;20441;-81
2023/12/21 00:10:39;;;;;;;8.00;4.10;;;;;;;;;;5036891;28;20487;-80
2023/12/21 00:13:06;;;;;;;12.50;3.90;;;;;;;;;;5037541;28;20440;-80
2023/12/21 00:15:32;;;;;;;11.60;4.10;;;;;;;;;;5036866;28;20475;-80
2023/12/21 00:17:59;;;;;;;10.17;4.87;;;;;;;;;;5037383;28;20447;-80
2023/12/21 00:20:26;;;;;;;13.50;3.93;;;;;;;;;;5037176;28;20495;-80
2023/12/21 00:22:53;;;;;;;12.93;2.87;;;;;;;;;;5037501;28;20436;-80
2023/12/21 00:25:20;;;;;;;10.53;4.33;;;;;;;;;;5036687;28;20839;-80
2023/12/21 00:27:46;;;;;;;9.97;4.30;;;;;;;;;;5038019;28;20464;-80
2023/12/21 00:30:13;;;;;;;5.37;3.60;;;;;;;;;;5036255;28;20460;-79
2023/12/21 00:32:45;;;;;;;10.67;2.87;;;;;;;;;;5037119;28;20532;-82
2023/12/21 00:35:11;;;;;;;9.87;4.27;;;;;;;;;;5037181;28;20519;-80
2023/12/21 00:37:38;;;;;;;17.20;3.27;;;;;;;;;;5035158;28;20476;-80
2023/12/21 00:40:06;;;;;;;13.73;4.17;;;;;;;;;;5035965;28;20436;-80
2023/12/21 00:42:34;;;;;;;15.40;4.03;;;;;;;;;;5036222;28;20471;-80
2023/12/21 00:45:01;;;;;;;9.40;3.00;;;;;;;;;;5036768;28;20500;-80
2023/12/21 00:47:27;;;;;;;5.53;3.57;;;;;;;;;;5036126;28;20471;-80
2023/12/21 00:49:54;;;;;;;7.37;3.07;;;;;;;;;;5037325;28;20515;-82
2023/12/21 00:52:20;;;;;;;7.17;3.27;;;;;;;;;;5036398;28;20860;-81
2023/12/21 00:54:47;;;;;;;8.57;3.13;;;;;;;;;;5035487;28;20468;-82
2023/12/21 00:57:15;;;;;;;13.10;3.77;;;;;;;;;;5036384;28;20481;-82
2023/12/21 00:59:41;;;;;;;5.53;2.40;;;;;;;;;;5035620;28;20448;-81
2023/12/21 01:02:08;;;;;;;9.27;2.93;;;;;;;;;;5036475;28;20479;-82
2023/12/21 01:04:34;;;;;;;13.80;4.20;;;;;;;;;;5036200;28;20459;-81
2023/12/21 01:07:01;;;;;;;8.07;3.70;;;;;;;;;;5036833;28;20475;-80
2023/12/21 01:09:28;;;;;;;8.60;2.67;;;;;;;;;;5036332;28;21033;-80
2023/12/21 01:11:54;;;;;;;11.17;3.60;;;;;;;;;;5036678;28;20551;-80
2023/12/21 01:14:22;;;;;;;7.67;3.37;;;;;;;;;;5036843;28;20528;-80
2023/12/21 01:16:49;;;;;;;10.13;3.27;;;;;;;;;;5035990;28;20563;-80
2023/12/21 01:19:16;;;;;;;5.63;2.93;;;;;;;;;;5036575;28;20822;-80
2023/12/21 01:21:43;;;;;;;11.10;3.73;;;;;;;;;;5035897;28;21006;-81
2023/12/21 01:24:10;;;;;;;10.90;4.17;;;;;;;;;;5035935;28;20543;-81
2023/12/21 01:26:36;;;;;;;20.73;4.07;;;;;;;;;;5035938;28;20472;-80
2023/12/21 01:29:02;;;;;;;17.93;5.10;;;;;;;;;;5035716;28;20436;-80
2023/12/21 01:31:32;;;;;;;19.00;4.70;;;;;;;;;;5035800;28;20483;-80
2023/12/21 01:33:59;;;;;;;20.60;5.80;;;;;;;;;;5036292;28;20435;-81
2023/12/21 01:36:26;;;;;;;15.07;4.60;;;;;;;;;;5034788;28;20532;-80
2023/12/21 01:38:53;;;;;;;15.10;4.50;;;;;;;;;;5035512;28;21014;-80
2023/12/21 01:41:20;;;;;;;20.07;4.60;;;;;;;;;;5035207;28;20475;-81
2023/12/21 01:43:48;;;;;;;12.70;3.57;;;;;;;;;;5035727;28;20437;-82
2023/12/21 01:46:14;;;;;;;19.20;5.53;;;;;;;;;;5034885;28;20877;-82
2023/12/21 01:48:43;;;;;;;23.17;4.90;;;;;;;;;;5034667;28;20524;-82
2023/12/21 01:51:11;;;;;;;17.70;4.77;;;;;;;;;;5034811;28;20476;-82
2023/12/21 01:53:40;;;;;;;19.87;5.80;;;;;;;;;;5033897;28;20456;-82
2023/12/21 01:56:07;;;;;;;13.03;4.77;;;;;;;;;;5034855;28;21016;-82
2023/12/21 01:58:33;;;;;;;16.67;4.57;;;;;;;;;;5034754;28;20444;-81
2023/12/21 02:01:00;;;;;;;13.43;4.80;;;;;;;;;;5033223;28;21017;-80
2023/12/21 02:03:28;;;;;;;14.00;5.17;;;;;;;;;;5034207;28;20812;-81
2023/12/21 02:05:55;;;;;;;10.03;5.80;;;;;;;;;;5034569;28;20476;-82
2023/12/21 02:08:22;;;;;;;18.13;5.67;;;;;;;;;;5035156;28;20984;-82
2023/12/21 02:10:49;;;;;;;16.67;4.73;;;;;;;;;;5034849;28;20872;-82
2023/12/21 02:13:16;;;;;;;16.60;5.67;;;;;;;;;;5035158;28;20953;-80
2023/12/21 02:15:43;;;;;;;10.93;4.90;;;;;;;;;;5034030;28;20467;-82
2023/12/21 02:18:11;;;;;;;17.20;6.20;;;;;;;;;;5035041;28;20490;-83
2023/12/21 02:20:40;;;;;;;19.50;5.70;;;;;;;;;;5034608;28;20436;-80
2023/12/21 02:23:09;;;;;;;18.83;5.30;;;;;;;;;;5035338;28;20491;-81
2023/12/21 02:25:37;;;;;;;13.83;5.20;;;;;;;;;;5034626;28;20494;-81
2023/12/21 02:28:03;;;;;;;16.60;5.27;;;;;;;;;;5034704;28;20444;-81
2023/12/21 02:30:32;;;;;;;14.33;5.57;;;;;;;;;;5035297;28;20855;-82
2023/12/21 02:32:59;;;;;;;8.60;4.60;;;;;;;;;;5038277;28;20449;-81
2023/12/21 02:35:25;;;;;;;13.40;5.93;;;;;;;;;;5037653;28;20903;-82
2023/12/21 02:37:52;;;;;;;14.10;5.07;;;;;;;;;;5037972;28;20476;-83
2023/12/21 02:40:18;;;;;;;12.63;5.37;;;;;;;;;;5039006;28;20451;-82
2023/12/21 02:42:46;;;;;;;21.80;6.47;;;;;;;;;;5038520;28;20467;-82
2023/12/21 02:45:15;;;;;;;15.63;5.90;;;;;;;;;;5039092;28;20547;-82
2023/12/21 02:47:42;;;;;;;16.23;5.80;;;;;;;;;;5037648;28;20918;-82
2023/12/21 02:50:08;;;;;;;10.77;4.53;;;;;;;;;;5038180;28;20437;-82
2023/12/21 02:52:35;;;;;;;17.47;4.83;;;;;;;;;;5037258;28;20483;-82
2023/12/21 02:55:02;;;;;;;12.43;5.30;;;;;;;;;;5038485;28;20851;-82
2023/12/21 02:57:28;;;;;;;9.97;5.13;;;;;;;;;;5037162;28;20543;-82
2023/12/21 02:59:57;;;;;;;10.50;4.73;;;;;;;;;;5038183;28;20420;-80
2023/12/21 03:02:24;;;;;;;8.57;4.43;;;;;;;;;;5038173;28;20472;-80
2023/12/21 03:04:51;;;;;;;10.90;4.30;;;;;;;;;;5038368;28;20984;-81
2023/12/21 03:07:18;;;;;;;10.87;4.20;;;;;;;;;;5038206;28;20469;-80
2023/12/21 03:09:45;;;;;;;11.67;3.83;;;;;;;;;;5037861;28;20567;-80
2023/12/21 03:12:11;;;;;;;8.60;4.27;;;;;;;;;;5036944;28;20468;-80
2023/12/21 03:14:38;;;;;;;8.23;4.47;;;;;;;;;;5037832;28;20467;-80
2023/12/21 03:17:06;;;;;;;8.60;3.70;;;;;;;;;;5037081;28;20476;-80
2023/12/21 03:19:33;;;;;;;12.20;5.10;;;;;;;;;;5038231;28;20863;-81
2023/12/21 03:21:59;;;;;;;9.00;4.30;;;;;;;;;;5037773;28;20468;-80
2023/12/21 03:24:26;;;;;;;9.90;4.53;;;;;;;;;;5037931;28;21051;-80
2023/12/21 03:26:52;;;;;;;15.10;4.47;;;;;;;;;;5037459;28;20547;-82
2023/12/21 03:29:19;;;;;;;7.90;4.80;;;;;;;;;;5038176;28;20463;-81
2023/12/21 03:31:45;;;;;;;12.53;5.20;;;;;;;;;;5037713;28;20480;-81
2023/12/21 03:34:13;;;;;;;6.03;4.37;;;;;;;;;;5038317;28;20501;-81
2023/12/21 03:36:40;;;;;;;11.60;6.13;;;;;;;;;;5037093;28;20483;-80
2023/12/21 03:39:07;;;;;;;10.10;4.77;;;;;;;;;;5038215;28;20508;-82
2023/12/21 03:41:33;;;;;;;11.40;5.00;;;;;;;;;;5035513;28;20496;-81
2023/12/21 03:43:59;;;;;;;10.20;7.57;;;;;;;;;;5038331;28;20518;-82
2023/12/21 03:46:26;;;;;;;13.83;5.00;;;;;;;;;;5037329;28;20473;-80
2023/12/21 03:48:52;;;;;;;10.30;5.43;;;;;;;;;;5037527;28;20531;-80
2023/12/21 03:51:20;;;;;;;9.90;5.30;;;;;;;;;;5036946;28;20475;-80
2023/12/21 03:53:47;;;;;;;9.03;3.90;;;;;;;;;;5036971;28;20985;-82
2023/12/21 03:56:13;;;;;;;19.00;4.80;;;;;;;;;;5036388;28;20479;-82
2023/12/21 03:58:41;;;;;;;10.20;5.00;;;;;;;;;;5033753;28;20457;-80
2023/12/21 04:01:07;;;;;;;8.73;5.07;;;;;;;;;;5036899;28;20943;-82
2023/12/21 04:03:34;;;;;;;12.47;4.63;;;;;;;;;;5036993;28;20451;-82
2023/12/21 04:06:02;;;;;;;12.33;4.90;;;;;;;;;;5035851;28;20480;-82
2023/12/21 04:08:30;;;;;;;12.40;3.70;;;;;;;;;;5036879;28;20433;-82
2023/12/21 04:10:56;;;;;;;9.60;4.90;;;;;;;;;;5036248;28;20471;-82
2023/12/21 04:13:23;;;;;;;13.10;4.77;;;;;;;;;;5037275;28;20451;-82
2023/12/21 04:15:51;;;;;;;7.90;4.10;;;;;;;;;;5035529;28;20470;-81
2023/12/21 04:18:17;;;;;;;13.53;4.43;;;;;;;;;;5036321;28;20492;-81
2023/12/21 04:20:44;;;;;;;8.10;5.10;;;;;;;;;;5037286;28;20571;-82
2023/12/21 04:23:10;;;;;;;9.60;4.60;;;;;;;;;;5037548;28;20469;-82
2023/12/21 04:25:38;;;;;;;16.33;5.27;;;;;;;;;;5035993;28;20584;-80
2023/12/21 04:28:05;;;;;;;8.70;4.57;;;;;;;;;;5036904;28;20437;-82
2023/12/21 04:30:32;;;;;;;10.70;4.70;;;;;;;;;;5036144;28;20567;-81
2023/12/21 04:32:58;;;;;;;10.30;6.77;;;;;;;;;;5036997;28;20985;-81
2023/12/21 04:35:25;;;;;;;13.27;7.30;;;;;;;;;;5031393;28;20465;-82
2023/12/21 04:37:51;;;;;;;8.40;4.40;;;;;;;;;;5037081;28;20481;-80
2023/12/21 04:40:19;;;;;;;10.23;4.37;;;;;;;;;;5036560;28;20889;-80
2023/12/21 04:42:52;;;;;;;12.70;5.47;;;;;;;;;;5036898;28;20818;-82
2023/12/21 04:45:18;;;;;;;10.40;5.47;;;;;;;;;;5034723;28;20469;-81
2023/12/21 04:47:45;;;;;;;11.47;5.20;;;;;;;;;;5036094;28;20791;-82
2023/12/21 04:50:12;;;;;;;9.17;5.00;;;;;;;;;;5036160;28;20559;-81
2023/12/21 04:52:39;;;;;;;10.93;5.70;;;;;;;;;;5035416;28;20453;-82
2023/12/21 04:55:07;;;;;;;11.90;6.00;;;;;;;;;;5035534;28;20472;-82
2023/12/21 04:57:34;;;;;;;8.00;4.27;;;;;;;;;;5035787;28;20484;-83
2023/12/21 05:00:05;;;;;;;14.53;4.50;;;;;;;;;;5034287;28;20460;-81
2023/12/21 05:02:31;;;;;;;8.90;5.37;;;;;;;;;;5035576;28;20455;-81
2023/12/21 05:04:57;;;;;;;9.43;4.50;;;;;;;;;;5035132;28;21082;-81
2023/12/21 05:07:24;;;;;;;7.63;3.83;;;;;;;;;;5035889;28;20464;-81
2023/12/21 05:09:52;;;;;;;8.00;4.60;;;;;;;;;;5035075;28;20905;-81
2023/12/21 05:12:18;;;;;;;8.90;5.30;;;;;;;;;;5034849;28;20539;-82
2023/12/21 05:14:45;;;;;;;10.07;4.40;;;;;;;;;;5034395;28;20845;-81
2023/12/21 05:17:13;;;;;;;13.47;4.63;;;;;;;;;;5035263;28;20445;-81
2023/12/21 05:19:40;;;;;;;4.63;3.43;;;;;;;;;;5034758;28;20559;-82
2023/12/21 05:22:08;;;;;;;11.07;5.23;;;;;;;;;;5035496;28;20447;-81
2023/12/21 05:24:35;;;;;;;7.70;4.27;;;;;;;;;;5033994;28;20576;-82
2023/12/21 05:27:01;;;;;;;8.43;3.83;;;;;;;;;;5035404;28;20452;-81
2023/12/21 05:29:28;;;;;;;11.37;4.10;;;;;;;;;;5034906;28;20484;-81
2023/12/21 05:31:55;;;;;;;13.20;4.77;;;;;;;;;;5035172;28;20433;-81
2023/12/21 05:34:25;;;;;;;10.60;4.60;;;;;;;;;;5017225;28;20465;-82
2023/12/21 05:36:51;;;;;;;11.30;5.07;;;;;;;;;;5034827;28;20539;-81
2023/12/21 05:39:19;;;;;;;7.03;4.03;;;;;;;;;;5033644;28;20457;-79
2023/12/21 05:41:46;;;;;;;13.60;4.30;;;;;;;;;;5034929;28;20432;-82
2023/12/21 05:44:13;;;;;;;5.73;2.97;;;;;;;;;;5034484;28;20483;-82
2023/12/21 05:46:42;;;;;;;7.60;3.00;;;;;;;;;;5033596;28;20821;-82
2023/12/21 05:49:11;;;;;;;4.77;2.90;;;;;;;;;;5034165;28;20825;-82
2023/12/21 05:51:39;;;;;;;10.73;3.73;;;;;;;;;;5034053;28;20445;-82
2023/12/21 05:54:06;;;;;;;6.10;3.60;;;;;;;;;;5034644;28;20481;-80
2023/12/21 05:56:35;;;;;;;6.97;3.40;;;;;;;;;;5017593;28;20448;-80
2023/12/21 05:59:03;;;;;;;8.33;4.80;;;;;;;;;;5034310;28;20555;-81
2023/12/21 06:01:30;;;;;;;10.27;4.07;;;;;;;;;;5034429;28;20943;-82
2023/12/21 06:03:56;;;;;;;6.17;2.60;;;;;;;;;;5034645;28;20504;-81
2023/12/21 06:06:23;;;;;;;4.47;3.20;;;;;;;;;;5031720;28;20440;-82
2023/12/21 06:08:53;;;;;;;5.97;3.40;;;;;;;;;;5033359;28;20440;-80
2023/12/21 06:11:19;;;;;;;5.80;3.47;;;;;;;;;;5034084;28;20984;-82
2023/12/21 06:13:47;;;;;;;7.97;3.50;;;;;;;;;;5034002;28;20816;-82
2023/12/21 06:16:14;;;;;;;8.37;2.97;;;;;;;;;;5035541;28;20436;-81
2023/12/21 06:18:41;;;;;;;4.50;3.00;;;;;;;;;;5034362;28;20869;-81
2023/12/21 06:21:07;;;;;;;7.43;3.77;;;;;;;;;;5035051;28;20499;-81
2023/12/21 06:23:34;;;;;;;7.23;3.30;;;;;;;;;;5034764;28;20449;-81
2023/12/21 06:26:01;;;;;;;5.07;3.27;;;;;;;;;;5034811;28;20819;-81
2023/12/21 06:28:28;;;;;;;4.97;2.70;;;;;;;;;;5035138;28;20441;-82
2023/12/21 06:30:54;;;;;;;9.50;3.33;;;;;;;;;;5033849;28;20906;-81
2023/12/21 06:33:21;;;;;;;7.10;3.13;;;;;;;;;;5034213;28;20938;-81
2023/12/21 06:35:47;;;;;;;4.43;2.87;;;;;;;;;;5032726;28;20495;-81
2023/12/21 06:38:14;;;;;;;5.97;3.37;;;;;;;;;;5033969;28;20487;-82
2023/12/21 06:40:41;;;;;;;6.87;3.33;;;;;;;;;;5034114;28;20475;-81
2023/12/21 06:43:09;;;;;;;4.47;3.40;;;;;;;;;;5035836;28;20443;-81
2023/12/21 06:45:35;;;;;;;6.43;3.60;;;;;;;;;;5032053;28;20469;-82
2023/12/21 06:48:02;;;;;;;6.87;3.50;;;;;;;;;;5034855;28;20433;-82
2023/12/21 06:50:29;;;;;;;10.13;4.00;;;;;;;;;;5033095;28;20559;-82
2023/12/21 06:52:55;;;;;;;6.20;3.60;;;;;;;;;;5035053;28;20451;-79
2023/12/21 06:55:24;;;;;;;4.87;2.53;;;;;;;;;;5035064;28;20479;-80
2023/12/21 06:57:50;;;;;;;5.03;2.70;;;;;;;;;;5034586;28;20460;-81
2023/12/21 07:00:19;;;;;;;7.70;3.50;;;;;;;;;;5034921;28;20469;-80
2023/12/21 07:02:45;;;;;;;7.20;2.90;;;;;;;;;;5035808;28;20513;-80
2023/12/21 07:05:12;;;;;;;6.20;3.40;;;;;;;;;;5035388;28;20471;-81
2023/12/21 07:07:38;;;;;;;6.23;3.57;;;;;;;;;;5035886;28;21049;-81
2023/12/21 07:10:05;;;;;;;2.60;1.90;;;;;;;;;;5035322;28;21020;-79
2023/12/21 07:12:32;;;;;;;1.70;1.50;;;;;;;;;;5035618;28;20523;-80
2023/12/21 07:14:58;;;;;;;3.40;1.97;;;;;;;;;;5034318;28;20469;-80
2023/12/21 07:17:26;;;;;;;3.70;1.83;;;;;;;;;;5038372;28;20884;-80
2023/12/21 07:19:52;;;;;;;3.03;1.50;;;;;;;;;;5038550;28;20519;-80
2023/12/21 07:22:19;;;;;;;2.27;1.57;;;;;;;;;;5038750;28;20469;-80
2023/12/21 07:24:45;;;;;;;1.57;1.40;;;;;;;;;;5037051;28;20486;-82
2023/12/21 07:27:12;;;;;;;2.30;1.67;;;;;;;;;;5038794;28;20433;-80
2023/12/21 07:29:38;;;;;;;0.60;0.60;;;;;;;;;;5038212;28;20464;-80
2023/12/21 07:32:05;;;;;;;1.17;0.90;;;;;;;;;;5038006;28;20966;-80
2023/12/21 07:34:33;;;;;;;1.53;1.10;;;;;;;;;;5035745;28;20472;-80
2023/12/21 07:36:59;;;;;;;0.90;0.90;;;;;;;;;;5038189;28;20437;-80
2023/12/21 07:39:26;;;;;;;1.87;1.00;;;;;;;;;;5037189;28;20480;-80
2023/12/21 07:41:53;;;;;;;1.10;1.00;;;;;;;;;;5038239;28;20444;-81
2023/12/21 07:44:19;;;;;;;3.43;1.23;;;;;;;;;;5037398;28;20476;-80
2023/12/21 07:46:46;;;;;;;1.33;1.07;;;;;;;;;;5036059;28;20437;-80
2023/12/21 07:49:12;;;;;;;3.20;1.93;;;;;;;;;;5036748;28;20468;-79
2023/12/21 07:51:40;;;;;;;1.27;1.10;;;;;;;;;;5039298;28;20528;-80
2023/12/21 07:54:06;;;;;;;1.47;1.37;;;;;;;;;;5037372;28;21017;-80
2023/12/21 07:56:33;;;;;;;1.40;1.07;;;;;;;;;;5038555;28;20496;-80
2023/12/21 07:59:04;;;;;;;1.07;1.00;;;;;;;;;;5038158;28;20480;-80
2023/12/21 08:01:30;;;;;;;2.03;1.73;;;;;;;;;;5038242;28;20495;-80
2023/12/21 08:03:57;;;;;;;3.40;1.97;;;;;;;;;;5038494;28;20930;-80
2023/12/21 08:06:23;;;;;;;5.33;1.90;;;;;;;;;;5038864;28;20437;-80
2023/12/21 08:08:52;;;;;;;4.17;1.50;;;;;;;;;;5037183;28;20939;-80
2023/12/21 08:11:19;;;;;;;1.67;1.57;;;;;;;;;;5038424;28;20444;-81
2023/12/21 08:13:46;;;;;;;3.77;1.60;;;;;;;;;;5036385;28;20443;-80
2023/12/21 08:16:12;;;;;;;4.00;1.83;;;;;;;;;;5038734;28;20516;-80
2023/12/21 08:18:39;;;;;;;3.70;1.77;;;;;;;;;;5038669;28;20920;-80
2023/12/21 08:21:05;;;;;;;2.93;1.73;;;;;;;;;;5039725;28;20439;-80
2023/12/21 08:23:32;;;;;;;4.00;1.80;;;;;;;;;;5039757;28;20867;-80
2023/12/21 08:26:01;;;;;;;2.17;1.43;;;;;;;;;;5038835;28;20528;-80
2023/12/21 08:28:29;;;;;;;3.20;2.20;;;;;;;;;;5038963;28;20471;-80
2023/12/21 08:30:55;;;;;;;3.23;1.77;;;;;;;;;;5038857;28;20560;-80
2023/12/21 08:33:22;;;;;;;3.20;1.90;;;;;;;;;;5039598;28;20479;-82
2023/12/21 08:35:48;;;;;;;3.03;1.60;;;;;;;;;;5038292;28;20568;-81
2023/12/21 08:38:15;;;;;;;2.40;1.40;;;;;;;;;;5038911;28;20524;-80
2023/12/21 08:40:42;;;;;;;7.53;1.97;;;;;;;;;;5038382;28;20473;-82
2023/12/21 08:43:09;;;;;;;2.30;1.17;;;;;;;;;;5038723;28;20524;-81
2023/12/21 08:45:36;;;;;;;2.70;1.30;;;;;;;;;;5037412;28;20496;-81
2023/12/21 08:48:03;;;;;;;3.67;1.63;;;;;;;;;;5038965;28;20471;-81
2023/12/21 08:50:29;;;;;;;2.13;1.53;;;;;;;;;;5039256;28;20546;-82
2023/12/21 08:52:59;;;;;;;1.57;1.37;;;;;;;;;;5039306;28;20543;-80
2023/12/21 08:55:27;;;;;;;2.83;1.63;;;;;;;;;;5039053;28;20500;-80
2023/12/21 08:57:56;;;;;;;2.67;1.10;;;;;;;;;;5039148;28;20456;-80
2023/12/21 09:00:24;;;;;;;1.90;1.23;;;;;;;;;;5037065;28;20476;-81
2023/12/21 09:02:50;;;;;;;3.07;1.30;;;;;;;;;;5037443;28;20444;-80
2023/12/21 09:05:17;;;;;;;0.90;0.90;;;;;;;;;;5037830;28;20568;-80
2023/12/21 09:07:44;;;;;;;2.03;1.20;;;;;;;;;;5038026;28;21006;-80
2023/12/21 09:10:11;;;;;;;4.40;1.37;;;;;;;;;;5037090;28;20476;-79
2023/12/21 09:12:37;;;;;;;2.70;1.03;;;;;;;;;;5038894;28;20528;-80
2023/12/21 09:15:04;;;;;;;0.97;0.97;;;;;;;;;;5037665;28;20501;-80
2023/12/21 09:17:32;;;;;;;1.93;0.90;;;;;;;;;;5037054;28;20958;-80
2023/12/21 09:19:58;;;;;;;4.93;1.53;;;;;;;;;;5038146;28;20472;-80
2023/12/21 09:22:25;;;;;;;0.93;0.90;;;;;;;;;;5037848;28;20443;-80
2023/12/21 09:24:51;;;;;;;1.10;0.90;;;;;;;;;;5037745;28;20571;-79
2023/12/21 09:27:18;;;;;;;1.63;0.90;;;;;;;;;;5039941;28;20469;-81
2023/12/21 09:29:44;;;;;;;1.50;0.90;;;;;;;;;;5038015;28;20469;-82
2023/12/21 09:32:11;;;;;;;2.63;1.03;;;;;;;;;;5032909;28;20892;-81
2023/12/21 09:34:39;;;;;;;0.67;0.67;;;;;;;;;;5036914;28;20476;-81
2023/12/21 09:37:05;;;;;;;1.33;0.70;;;;;;;;;;5039501;28;20441;-80
2023/12/21 09:39:32;;;;;;;1.63;0.80;;;;;;;;;;5036535;28;20560;-81
2023/12/21 09:42:00;;;;;;;3.90;0.77;;;;;;;;;;5036233;28;20441;-80
2023/12/21 09:44:27;;;;;;;1.33;0.43;;;;;;;;;;5036328;28;20480;-80
2023/12/21 09:46:54;;;;;;;0.90;0.43;;;;;;;;;;5036530;28;20966;-80
2023/12/21 09:49:21;;;;;;;0.77;0.63;;;;;;;;;;5036033;28;20484;-80
2023/12/21 09:51:50;;;;;;;0.50;0.50;;;;;;;;;;5036084;28;20532;-80
2023/12/21 09:54:17;;;;;;;1.23;0.60;;;;;;;;;;5035406;28;20477;-80
2023/12/21 09:56:44;;;;;;;0.93;0.67;;;;;;;;;;5036216;28;20886;-81
2023/12/21 09:59:10;;;;;;;0.50;0.50;;;;;;;;;;5035975;28;20504;-81
2023/12/21 10:01:36;;;;;;;1.07;0.70;;;;;;;;;;5036647;28;20497;-79
2023/12/21 10:04:03;;;;;;;0.60;0.60;;;;;;;;;;5036727;28;20312;-79
2023/12/21 10:06:29;;;;;;;0.67;0.67;;;;;;;;;;5037365;28;20875;-79
2023/12/21 10:08:57;;;;;;;0.50;0.40;;;;;;;;;;5036652;28;20472;-79
2023/12/21 10:11:23;;;;;;;0.40;0.40;;;;;;;;;;5036294;28;20444;-79
2023/12/21 10:13:50;;;;;;;0.80;0.57;;;;;;;;;;5034456;28;20555;-81
2023/12/21 10:16:17;;;;;;;1.20;0.90;;;;;;;;;;5035877;28;20484;-80
2023/12/21 10:18:44;;;;;;;0.67;0.67;;;;;;;;;;5035174;28;20507;-81
2023/12/21 10:21:10;;;;;;;1.00;0.80;;;;;;;;;;5035621;28;20452;-81
2023/12/21 10:23:38;;;;;;;1.33;0.73;;;;;;;;;;5035399;28;20500;-80
2023/12/21 10:26:06;;;;;;;0.50;0.50;;;;;;;;;;5036701;28;20467;-79
2023/12/21 10:28:32;;;;;;;2.20;0.77;;;;;;;;;;5033623;28;20487;-80
2023/12/21 10:31:00;;;;;;;0.60;0.60;;;;;;;;;;5044867;28;20530;-80
2023/12/21 10:33:27;;;;;;;2.30;1.17;;;;;;;;;;5035908;28;20572;-80
2023/12/21 10:35:53;;;;;;;0.77;0.50;;;;;;;;;;5036070;28;20893;-79
2023/12/21 10:38:21;;;;;;;0.70;0.67;;;;;;;;;;5034823;28;20564;-81
2023/12/21 10:40:49;;;;;;;2.07;0.80;;;;;;;;;;5035339;28;20484;-79
2023/12/21 10:43:17;;;;;;;1.27;0.60;;;;;;;;;;5035484;28;20465;-79
2023/12/21 10:45:43;;;;;;;1.80;0.60;;;;;;;;;;5036022;28;20548;-80
2023/12/21 10:48:12;;;;;;;0.50;0.50;;;;;;;;;;5035649;28;20555;-80
2023/12/21 10:50:39;;;;;;;0.80;0.60;;;;;;;;;;5036596;28;20472;-80
2023/12/21 10:53:05;;;;;;;0.87;0.60;;;;;;;;;;5038955;28;20547;-80
2023/12/21 10:55:32;;;;;;;1.23;0.70;;;;;;;;;;5039088;28;20467;-80
2023/12/21 10:58:00;;;;;;;1.20;1.00;;;;;;;;;;5038186;28;20544;-80
2023/12/21 11:00:28;;;;;;;1.93;1.83;;;;;;;;;;5039372;28;21036;-81
2023/12/21 11:02:55;;;;;;;1.40;1.30;;;;;;;;;;5038272;28;20475;-80
2023/12/21 11:05:23;;;;;;;4.80;1.17;;;;;;;;;;5039267;28;20543;-80
2023/12/21 11:07:49;;;;;;;1.70;0.97;;;;;;;;;;5040145;28;21012;-81
2023/12/21 11:10:17;;;;;;;4.70;2.00;;;;;;;;;;5040347;28;20519;-80
2023/12/21 11:12:43;;;;;;;10.40;2.50;;;;;;;;;;5040846;28;20452;-80
2023/12/21 11:15:10;;;;;;;6.27;1.73;;;;;;;;;;5040708;28;20555;-80
2023/12/21 11:17:38;;;;;;;6.77;1.30;;;;;;;;;;5041737;28;20508;-80
2023/12/21 11:20:05;;;;;;;3.73;3.27;;;;;;;;;;5041133;28;20480;-80
2023/12/21 11:22:33;;;;;;;4.63;1.80;;;;;;;;;;5040523;28;20515;-78
2023/12/21 11:25:04;;;;;;;6.37;1.53;;;;;;;;;;5040510;28;20547;-78
2023/12/21 11:27:31;;;;;;;7.43;2.37;;;;;;;;;;5041300;28;20444;-78
2023/12/21 11:30:08;;;;;;;8.00;2.23;;;;;;;;;;5040348;28;20555;-80
2023/12/21 11:32:34;;;;;;;7.47;3.37;;;;;;;;;;5038754;28;20511;-80
2023/12/21 11:35:02;;;;;;;8.97;4.00;;;;;;;;;;5040324;28;20501;-80
2023/12/21 11:37:28;;;;;;;13.83;3.00;;;;;;;;;;5039252;28;20509;-80
2023/12/21 11:39:57;;;;;;;14.13;4.30;;;;;;;;;;5038739;28;20578;-78
2023/12/21 11:42:32;;;;;;;8.60;3.03;;;;;;;;;;5039068;28;20484;-81
2023/12/21 11:45:01;;;;;;;16.53;3.23;;;;;;;;;;5037277;28;20453;-80
2023/12/21 11:47:28;;;;;;;11.30;3.27;;;;;;;;;;5037963;28;20536;-78
2023/12/21 11:50:06;;;;;;;11.07;4.00;;;;;;;;;;5036990;28;20496;-78
2023/12/21 11:52:32;;;;;;;14.60;3.87;;;;;;;;;;5037779;28;20423;-80
2023/12/21 11:55:00;;;;;;;12.37;3.00;;;;;;;;;;5036633;28;20544;-80
2023/12/21 11:57:27;;;;;;;12.00;2.63;;;;;;;;;;5040117;28;20448;-81
2023/12/21 12:00:07;;;;;;;12.47;3.13;;;;;;;;;;5044469;28;20861;-79
2023/12/21 12:02:34;;;;;;;11.47;5.03;;;;;;;;;;5035696;28;20436;-79
2023/12/21 12:05:02;;;;;;;16.23;6.17;;;;;;;;;;5036599;28;20500;-79
2023/12/21 12:07:31;;;;;;;23.83;4.80;;;;;;;;;;5036743;28;20441;-79
2023/12/21 12:09:57;;;;;;;13.50;4.93;;;;;;;;;;5035657;28;20469;-79
2023/12/21 12:12:24;;;;;;;13.97;3.77;;;;;;;;;;5036148;28;20444;-79
2023/12/21 12:14:51;;;;;;;20.37;4.30;;;;;;;;;;5035635;28;20477;-79
2023/12/21 12:17:17;;;;;;;14.27;4.63;;;;;;;;;;5036387;28;20448;-79
2023/12/21 12:19:44;;;;;;;26.73;5.63;;;;;;;;;;5036777;28;20568;-79
2023/12/21 12:22:10;;;;;;;5.70;2.17;;;;;;;;;;5035770;28;20951;-79
2023/12/21 12:24:39;;;;;;;10.77;2.70;;;;;;;;;;5035499;28;20851;-80
2023/12/21 12:27:06;;;;;;;9.87;1.83;;;;;;;;;;5035868;28;20951;-80
2023/12/21 12:29:32;;;;;;;2.23;1.30;;;;;;;;;;5036139;28;20492;-79
2023/12/21 12:31:59;;;;;;;7.63;2.33;;;;;;;;;;5036242;28;20540;-79
2023/12/21 12:34:26;;;;;;;7.67;1.70;;;;;;;;;;5035473;28;20477;-79
2023/12/21 12:36:55;;;;;;;6.40;2.13;;;;;;;;;;5036027;28;20444;-80
2023/12/21 12:39:22;;;;;;;5.97;1.87;;;;;;;;;;5036444;28;20472;-80
2023/12/21 12:41:55;;;;;;;8.30;2.47;;;;;;;;;;5036607;28;20449;-80
2023/12/21 12:44:22;;;;;;;8.37;1.90;;;;;;;;;;5036929;28;20488;-79
2023/12/21 12:46:48;;;;;;;5.40;1.50;;;;;;;;;;5036475;28;20527;-80
2023/12/21 12:49:16;;;;;;;7.90;1.90;;;;;;;;;;5036133;28;20555;-79
2023/12/21 12:51:42;;;;;;;11.10;2.80;;;;;;;;;;5035994;28;20443;-80
2023/12/21 12:54:10;;;;;;;8.30;2.13;;;;;;;;;;5035336;28;20473;-80
2023/12/21 12:56:44;;;;;;;5.63;1.80;;;;;;;;;;5036252;28;20531;-79
2023/12/21 12:59:12;;;;;;;9.53;2.27;;;;;;;;;;5039167;28;20582;-79
2023/12/21 13:01:39;;;;;;;8.53;2.03;;;;;;;;;;5039016;28;20480;-79
2023/12/21 13:04:05;;;;;;;6.70;2.00;;;;;;;;;;5035584;28;20849;-79
2023/12/21 13:06:31;;;;;;;5.17;1.40;;;;;;;;;;5035760;28;20536;-79
2023/12/21 13:08:58;;;;;;;10.47;2.40;;;;;;;;;;5035278;28;20479;-79
2023/12/21 13:11:24;;;;;;;6.10;1.50;;;;;;;;;;5035825;28;20527;-79
2023/12/21 13:13:52;;;;;;;6.00;2.20;;;;;;;;;;5034669;28;20910;-81
2023/12/21 13:16:19;;;;;;;5.50;1.90;;;;;;;;;;5035582;28;20444;-79
2023/12/21 13:18:47;;;;;;;9.00;2.30;;;;;;;;;;5034551;28;20986;-79
2023/12/21 13:21:13;;;;;;;3.63;1.80;;;;;;;;;;5035362;28;20857;-79
2023/12/21 13:23:39;;;;;;;6.80;1.60;;;;;;;;;;5034573;28;20905;-79
2023/12/21 13:26:07;;;;;;;6.23;1.80;;;;;;;;;;5035090;28;20532;-79
2023/12/21 13:28:34;;;;;;;7.27;1.80;;;;;;;;;;5034839;28;20472;-81
2023/12/21 13:31:00;;;;;;;3.77;1.80;;;;;;;;;;5035058;28;20449;-79
2023/12/21 13:33:28;;;;;;;7.43;3.67;;;;;;;;;;5034803;28;20468;-79
2023/12/21 13:35:54;;;;;;;11.23;1.97;;;;;;;;;;5035074;28;20465;-79
2023/12/21 13:38:21;;;;;;;5.93;2.03;;;;;;;;;;5034428;28;20475;-79
2023/12/21 13:40:47;;;;;;;19.23;7.27;;;;;;;;;;5034610;28;20476;-79
2023/12/21 13:43:13;;;;;;;11.43;6.00;;;;;;;;;;5033893;28;21012;-80
2023/12/21 13:45:40;;;;;;;10.33;2.07;;;;;;;;;;5034299;28;20460;-80
2023/12/21 13:48:07;;;;;;;8.40;2.10;;;;;;;;;;5033820;28;20464;-80
2023/12/21 13:50:35;;;;;;;7.93;1.60;;;;;;;;;;5034487;28;20799;-80
2023/12/21 13:53:01;;;;;;;3.80;1.40;;;;;;;;;;5034268;28;20460;-80
2023/12/21 13:55:29;;;;;;;3.90;1.73;;;;;;;;;;5033812;28;21086;-81
2023/12/21 13:57:56;;;;;;;3.20;2.00;;;;;;;;;;5033290;28;20464;-80
2023/12/21 14:00:22;;;;;;;7.60;1.70;;;;;;;;;;5033934;28;20469;-80
2023/12/21 14:02:49;;;;;;;8.13;2.20;;;;;;;;;;5033600;28;20535;-80
2023/12/21 14:05:16;;;;;;;8.73;3.43;;;;;;;;;;5033758;28;21013;-80
2023/12/21 14:07:44;;;;;;;7.37;1.67;;;;;;;;;;5033726;28;20448;-80
2023/12/21 14:10:10;;;;;;;8.13;3.83;;;;;;;;;;5033848;28;20927;-80
2023/12/21 14:12:37;;;;;;;6.30;2.80;;;;;;;;;;5033418;28;20943;-80
2023/12/21 14:15:03;;;;;;;6.20;2.23;;;;;;;;;;5034164;28;20551;-80
2023/12/21 14:17:30;;;;;;;6.93;4.33;;;;;;;;;;5033790;28;20531;-80
2023/12/21 14:19:56;;;;;;;13.60;3.90;;;;;;;;;;5033185;28;20472;-80
2023/12/21 14:22:22;;;;;;;18.53;3.83;;;;;;;;;;5033988;28;20441;-80
2023/12/21 14:24:50;;;;;;;10.27;3.63;;;;;;;;;;5033086;28;20498;-79
2023/12/21 14:27:19;;;;;;;15.33;4.27;;;;;;;;;;5032938;28;20433;-79
2023/12/21 14:29:45;;;;;;;15.43;4.00;;;;;;;;;;5032928;28;20472;-79
2023/12/21 14:32:12;;;;;;;12.70;4.03;;;;;;;;;;5033762;28;20467;-80
2023/12/21 14:34:38;;;;;;;15.90;6.70;;;;;;;;;;5033004;28;20480;-80
2023/12/21 14:37:05;;;;;;;21.77;5.07;;;;;;;;;;5033138;28;20440;-80